createdAt,value
2022-12-09T00:02:06.951Z,21.03
2022-12-09T00:04:36.832Z,18.67
2022-12-09T00:07:08.177Z,20.17
2022-12-09T00:09:37.132Z,23.07
2022-12-09T00:12:07.490Z,25.87
2022-12-09T00:14:35.674Z,22.30
2022-12-09T00:17:12.945Z,25.80
2022-12-09T00:19:42.784Z,18.60
2022-12-09T00:22:17.149Z,20.73
2022-12-09T00:24:48.046Z,18.73
2022-12-09T00:27:17.320Z,21.60
2022-12-09T00:29:50.905Z,22.03
2022-12-09T00:32:19.102Z,23.47
2022-12-09T00:34:50.048Z,21.53
2022-12-09T00:37:18.259Z,21.30
2022-12-09T00:39:46.432Z,23.10
2022-12-09T00:42:14.934Z,19.10
2022-12-09T00:44:45.728Z,20.97
2022-12-09T00:47:15.309Z,20.10
2022-12-09T00:49:45.817Z,23.80
2022-12-09T00:52:19.177Z,22.53
2022-12-09T00:54:49.386Z,23.70
2022-12-09T00:57:17.544Z,21.87
2022-12-09T00:59:53.590Z,25.30
2022-12-09T01:02:22.083Z,21.33
2022-12-09T01:04:52.395Z,21.67
2022-12-09T01:07:22.113Z,18.43
2022-12-09T01:09:53.131Z,20.77
2022-12-09T01:12:23.350Z,21.40
2022-12-09T01:14:51.917Z,20.43
2022-12-09T01:17:23.285Z,19.60
2022-12-09T01:19:52.147Z,21.37
2022-12-09T01:22:21.918Z,22.30
2022-12-09T01:24:50.308Z,19.07
2022-12-09T01:27:19.081Z,21.07
2022-12-09T01:29:50.527Z,21.60
2022-12-09T01:32:19.235Z,20.90
2022-12-09T01:34:47.691Z,18.83
2022-12-09T01:37:24.888Z,21.47
2022-12-09T01:39:53.242Z,19.20
2022-12-09T01:42:26.381Z,18.20
2022-12-09T01:45:38.121Z,20.67
2022-12-09T01:48:11.371Z,17.07
2022-12-09T01:50:40.907Z,22.97
2022-12-09T01:53:12.000Z,18.73
2022-12-09T01:55:40.980Z,19.33
2022-12-09T01:58:12.749Z,18.10
2022-12-09T02:00:41.714Z,18.10
2022-12-09T02:03:10.019Z,17.40
2022-12-09T02:05:39.073Z,17.63
2022-12-09T02:08:11.884Z,18.43
2022-12-09T02:10:46.169Z,17.10
2022-12-09T02:13:26.398Z,20.10
2022-12-09T02:15:57.407Z,17.90
2022-12-09T02:18:33.468Z,18.77
2022-12-09T02:21:07.556Z,18.30
2022-12-09T02:23:41.660Z,21.33
2022-12-09T02:26:18.596Z,18.93
2022-12-09T02:29:05.677Z,17.87
2022-12-09T02:31:54.913Z,20.23
2022-12-09T02:34:31.192Z,18.00
2022-12-09T02:37:06.906Z,18.03
2022-12-09T02:39:40.544Z,15.97
2022-12-09T02:42:14.218Z,18.93
2022-12-09T02:44:44.547Z,18.33
2022-12-09T02:47:17.362Z,16.90
2022-12-09T02:49:49.925Z,18.63
2022-12-09T02:52:21.008Z,17.80
2022-12-09T02:54:56.237Z,17.20
2022-12-09T02:57:27.535Z,27.37
2022-12-09T02:59:58.940Z,58.80
2022-12-09T03:02:31.792Z,27.63
2022-12-09T03:05:15.134Z,34.23
2022-12-09T03:07:51.252Z,53.57
2022-12-09T03:10:24.611Z,58.43
2022-12-09T03:12:57.487Z,49.70
2022-12-09T03:15:28.946Z,60.93
2022-12-09T03:17:59.886Z,34.70
2022-12-09T03:20:33.354Z,31.03
2022-12-09T03:23:05.739Z,23.67
2022-12-09T03:25:40.554Z,17.57
2022-12-09T03:28:13.556Z,22.87
2022-12-09T03:30:46.691Z,17.33
2022-12-09T03:33:17.434Z,14.53
2022-12-09T03:35:51.441Z,16.30
2022-12-09T03:38:22.848Z,16.73
2022-12-09T03:40:58.778Z,15.93
2022-12-09T03:43:31.098Z,16.67
2022-12-09T03:45:59.895Z,73.87
2022-12-09T03:48:28.557Z,17.83
2022-12-09T03:51:09.884Z,16.43
2022-12-09T03:53:44.250Z,18.97
2022-12-09T03:56:19.982Z,16.00
2022-12-09T03:58:52.833Z,20.67
2022-12-09T04:01:22.188Z,43.20
2022-12-09T04:03:53.201Z,28.40
2022-12-09T04:06:23.288Z,52.33
2022-12-09T04:08:51.247Z,45.40
2022-12-09T04:11:21.714Z,31.83
2022-12-09T04:13:50.051Z,22.93
2022-12-09T04:16:20.271Z,11.83
2022-12-09T04:18:48.595Z,18.07
2022-12-09T04:21:17.146Z,10.73
2022-12-09T04:23:46.920Z,10.63
2022-12-09T04:26:16.304Z,13.30
2022-12-09T04:28:45.165Z,13.40
2022-12-09T04:31:14.690Z,12.90
2022-12-09T04:33:43.425Z,12.57
2022-12-09T04:36:13.989Z,9.23
2022-12-09T04:38:43.466Z,11.53
2022-12-09T04:41:13.306Z,11.77
2022-12-09T04:43:41.670Z,14.23
2022-12-09T04:46:13.863Z,11.83
2022-12-09T04:48:42.540Z,14.93
2022-12-09T04:51:14.918Z,11.73
2022-12-09T04:53:43.610Z,15.40
2022-12-09T04:56:16.504Z,15.37
2022-12-09T04:58:45.140Z,12.83
2022-12-09T05:01:18.351Z,16.03
2022-12-09T05:03:52.537Z,12.23
2022-12-09T05:06:22.746Z,14.93
2022-12-09T05:09:01.174Z,13.30
2022-12-09T05:11:33.045Z,17.40
2022-12-09T05:14:01.819Z,70.30
2022-12-09T05:16:30.569Z,58.60
2022-12-09T05:19:07.014Z,26.20
2022-12-09T05:21:40.741Z,93.00
2022-12-09T05:24:08.918Z,118.70
2022-12-09T05:26:41.737Z,173.60
2022-12-09T05:29:11.064Z,136.87
2022-12-09T05:31:39.155Z,155.27
2022-12-09T05:34:07.743Z,220.20
2022-12-09T05:36:36.054Z,180.67
2022-12-09T05:39:06.831Z,301.17
2022-12-09T05:41:35.428Z,246.30
2022-12-09T05:44:05.200Z,92.60
2022-12-09T05:46:33.774Z,183.93
2022-12-09T05:49:05.110Z,143.63
2022-12-09T05:51:34.042Z,184.33
2022-12-09T05:54:04.585Z,172.83
2022-12-09T05:56:33.731Z,170.80
2022-12-09T05:59:02.577Z,202.33
2022-12-09T06:01:32.459Z,172.63
2022-12-09T06:04:01.271Z,85.30
2022-12-09T06:06:32.539Z,75.17
2022-12-09T06:09:08.663Z,82.83
2022-12-09T06:11:37.058Z,55.57
2022-12-09T06:14:06.013Z,66.53
2022-12-09T06:16:38.183Z,37.73
2022-12-09T06:19:06.862Z,37.67
2022-12-09T06:21:35.274Z,39.97
2022-12-09T06:24:03.767Z,43.17
2022-12-09T06:26:35.060Z,32.90
2022-12-09T06:29:06.152Z,40.20
2022-12-09T06:33:55.915Z,23.57
2022-12-09T06:36:26.531Z,24.57
2022-12-09T06:38:55.491Z,19.47
2022-12-09T06:41:23.971Z,19.77
2022-12-09T06:43:55.536Z,18.67
2022-12-09T06:46:27.354Z,16.07
2022-12-09T06:48:57.659Z,25.77
2022-12-09T06:51:28.075Z,34.80
2022-12-09T06:53:59.828Z,30.70
2022-12-09T06:56:28.367Z,21.93
2022-12-09T06:58:56.815Z,40.57
2022-12-09T07:01:26.915Z,34.33
2022-12-09T07:03:58.416Z,23.30
2022-12-09T07:06:30.982Z,34.20
2022-12-09T07:09:01.815Z,32.90
2022-12-09T07:11:32.066Z,24.43
2022-12-09T07:14:00.730Z,24.93
2022-12-09T07:16:30.527Z,25.73
2022-12-09T07:19:01.893Z,23.03
2022-12-09T07:21:30.527Z,23.50
2022-12-09T07:24:00.895Z,21.30
2022-12-09T07:26:31.903Z,21.47
2022-12-09T07:29:02.886Z,22.83
2022-12-09T07:31:31.855Z,22.87
2022-12-09T07:34:02.048Z,23.10
2022-12-09T07:36:32.240Z,41.47
2022-12-09T07:39:02.386Z,36.20
2022-12-09T07:41:33.977Z,54.63
2022-12-09T07:44:02.811Z,34.60
2022-12-09T07:46:31.522Z,37.53
2022-12-09T07:49:02.937Z,27.23
2022-12-09T07:51:31.543Z,39.20
2022-12-09T07:54:01.026Z,33.60
2022-12-09T07:56:32.245Z,32.83
2022-12-09T07:59:00.826Z,29.83
2022-12-09T08:01:31.150Z,43.30
2022-12-09T08:06:19.403Z,87.90
2022-12-09T08:08:48.604Z,50.70
2022-12-09T08:13:33.618Z,166.43
2022-12-09T08:16:03.955Z,177.17
2022-12-09T08:18:32.635Z,222.93
2022-12-09T08:21:04.029Z,225.70
2022-12-09T08:23:32.322Z,288.10
2022-12-09T08:26:01.137Z,325.80
2022-12-09T08:28:31.440Z,204.73
2022-12-09T08:33:16.860Z,235.43
2022-12-09T08:35:45.743Z,225.07
2022-12-09T08:38:14.323Z,184.23
2022-12-09T08:40:42.390Z,287.47
2022-12-09T08:43:15.320Z,186.17
2022-12-09T08:45:49.402Z,173.63
2022-12-09T08:48:19.157Z,120.33
2022-12-09T08:50:48.667Z,128.27
2022-12-09T08:53:17.271Z,102.33
2022-12-09T08:55:48.454Z,78.90
2022-12-09T08:58:16.604Z,105.63
2022-12-09T09:00:44.732Z,88.73
2022-12-09T09:03:15.263Z,57.83
2022-12-09T09:05:45.591Z,71.33
2022-12-09T09:08:14.338Z,149.20
2022-12-09T09:10:43.280Z,159.40
2022-12-09T09:13:11.533Z,119.63
2022-12-09T09:15:46.417Z,92.20
2022-12-09T09:18:15.391Z,91.40
2022-12-09T09:20:52.420Z,91.03
2022-12-09T09:23:20.917Z,66.93
2022-12-09T09:26:11.716Z,65.97
2022-12-09T09:28:40.005Z,53.77
2022-12-09T09:31:10.224Z,50.87
2022-12-09T09:33:38.853Z,38.47
2022-12-09T09:36:11.415Z,21.17
2022-12-09T09:38:40.213Z,18.20
2022-12-09T09:41:20.485Z,19.60
2022-12-09T09:43:49.935Z,18.23
2022-12-09T09:46:25.771Z,21.87
2022-12-09T09:48:54.907Z,21.30
2022-12-09T09:51:35.037Z,22.00
2022-12-09T09:54:08.480Z,26.67
2022-12-09T09:56:43.898Z,24.03
2022-12-09T09:59:22.237Z,22.77
2022-12-09T10:01:58.179Z,25.57
2022-12-09T10:04:39.346Z,36.42
2022-12-09T10:07:19.050Z,31.83
2022-12-09T10:09:55.698Z,26.43
2022-12-09T10:12:34.800Z,30.23
2022-12-09T10:15:12.492Z,28.40
2022-12-09T10:17:47.988Z,27.27
2022-12-09T10:20:22.462Z,30.30
2022-12-09T10:23:00.033Z,33.40
2022-12-09T10:25:31.016Z,32.80
2022-12-09T10:28:06.558Z,30.63
2022-12-09T10:30:44.187Z,32.83
2022-12-09T10:33:13.910Z,29.13
2022-12-09T10:35:43.368Z,28.37
2022-12-09T10:38:14.985Z,29.80
2022-12-09T10:40:53.721Z,30.17
2022-12-09T10:43:35.295Z,29.57
2022-12-09T10:46:23.015Z,25.27
2022-12-09T10:49:01.542Z,29.10
2022-12-09T10:51:36.551Z,27.60
2022-12-09T10:54:20.925Z,26.87
2022-12-09T10:57:04.507Z,26.83
2022-12-09T10:59:34.679Z,23.83
2022-12-09T11:02:05.441Z,25.30
2022-12-09T11:04:36.062Z,24.77
2022-12-09T11:07:15.766Z,28.93
2022-12-09T11:09:48.025Z,27.80
2022-12-09T11:12:21.072Z,23.57
2022-12-09T11:15:04.458Z,25.13
2022-12-09T11:17:39.934Z,25.97
2022-12-09T11:20:21.340Z,24.33
2022-12-09T11:23:01.758Z,26.73
2022-12-09T11:25:33.848Z,27.03
2022-12-09T11:28:04.050Z,29.93
2022-12-09T11:30:40.629Z,24.93
2022-12-09T11:33:25.571Z,24.17
2022-12-09T11:35:59.901Z,24.57
2022-12-09T11:38:36.720Z,27.43
2022-12-09T11:41:15.119Z,24.83
2022-12-09T11:43:47.423Z,27.90
2022-12-09T11:46:23.199Z,25.07
2022-12-09T11:48:56.866Z,23.80
2022-12-09T11:51:29.983Z,23.77
2022-12-09T11:54:03.658Z,24.63
2022-12-09T11:56:34.535Z,26.97
2022-12-09T11:59:07.479Z,24.37
2022-12-09T12:01:48.095Z,23.20
2022-12-09T12:04:19.727Z,22.27
2022-12-09T12:06:54.849Z,27.00
2022-12-09T12:09:28.820Z,25.07
2022-12-09T12:12:03.605Z,21.30
2022-12-09T12:14:32.074Z,25.90
2022-12-09T12:17:09.020Z,22.60
2022-12-09T12:19:40.198Z,28.77
2022-12-09T12:22:37.719Z,30.27
2022-12-09T12:25:24.789Z,29.73
2022-12-09T12:28:12.572Z,24.20
2022-12-09T12:30:48.876Z,24.17
2022-12-09T12:36:32.718Z,20.07
2022-12-09T12:39:13.773Z,21.43
2022-12-09T12:41:50.729Z,24.37
2022-12-09T12:44:59.084Z,21.67
2022-12-09T12:47:40.794Z,23.63
2022-12-09T12:50:35.392Z,24.20
2022-12-09T12:53:13.419Z,24.33
2022-12-09T12:55:54.246Z,24.50
2022-12-09T12:58:36.873Z,24.83
2022-12-09T13:01:18.811Z,22.80
2022-12-09T13:03:58.684Z,23.40
2022-12-09T13:06:36.646Z,20.53
2022-12-09T13:09:10.754Z,22.50
2022-12-09T13:11:56.316Z,20.10
2022-12-09T13:14:34.617Z,30.67
2022-12-09T13:17:08.650Z,22.13
2022-12-09T13:19:43.429Z,18.63
2022-12-09T13:22:23.773Z,22.90
2022-12-09T13:25:01.749Z,21.13
2022-12-09T13:27:38.620Z,19.57
2022-12-09T13:30:32.326Z,21.60
2022-12-09T13:33:21.961Z,20.30
2022-12-09T13:35:56.487Z,16.43
2022-12-09T13:38:35.699Z,19.77
2022-12-09T13:41:59.242Z,17.70
2022-12-09T13:44:33.838Z,18.27
2022-12-09T13:47:29.120Z,17.50
2022-12-09T13:50:03.095Z,20.67
2022-12-09T13:52:57.587Z,20.37
2022-12-09T13:55:32.298Z,18.73
2022-12-09T13:58:27.984Z,19.67
2022-12-09T14:01:07.883Z,19.03
2022-12-09T14:03:40.427Z,19.47
2022-12-09T14:06:22.821Z,17.73
2022-12-09T14:08:54.624Z,17.03
2022-12-09T14:11:46.045Z,18.97
2022-12-09T14:14:56.308Z,15.83
2022-12-09T14:17:57.719Z,16.43
2022-12-09T14:20:31.161Z,16.53
2022-12-09T14:23:20.378Z,17.40
2022-12-09T14:26:05.870Z,15.20
2022-12-09T14:29:00.615Z,16.07
2022-12-09T14:31:59.442Z,15.73
2022-12-09T14:34:43.803Z,17.00
2022-12-09T14:37:37.829Z,21.07
2022-12-09T14:40:34.310Z,24.90
2022-12-09T14:43:17.105Z,27.00
2022-12-09T14:45:50.886Z,24.47
2022-12-09T14:48:24.950Z,24.50
2022-12-09T14:51:16.785Z,24.17
2022-12-09T14:53:50.402Z,23.10
2022-12-09T14:56:23.546Z,24.57
2022-12-09T14:58:55.589Z,28.83
2022-12-09T15:01:26.673Z,27.63
2022-12-09T15:03:57.399Z,25.23
2022-12-09T15:06:28.538Z,25.03
2022-12-09T15:08:59.340Z,25.47
2022-12-09T15:11:31.583Z,23.10
2022-12-09T15:14:24.477Z,22.57
2022-12-09T15:16:53.025Z,24.53
2022-12-09T15:19:58.187Z,27.73
2022-12-09T15:22:21.702Z,26.30
2022-12-09T15:24:51.206Z,23.23
2022-12-09T15:27:23.385Z,23.50
2022-12-09T15:29:56.559Z,22.63
2022-12-09T15:32:27.045Z,20.73
2022-12-09T15:34:55.681Z,28.00
2022-12-09T15:37:28.057Z,23.10
2022-12-09T15:40:01.806Z,24.10
2022-12-09T15:42:40.502Z,21.70
2022-12-09T15:45:11.902Z,21.67
2022-12-09T15:47:45.422Z,21.23
2022-12-09T15:50:20.770Z,22.60
2022-12-09T15:52:53.334Z,22.67
2022-12-09T15:55:25.973Z,22.87
2022-12-09T15:57:59.856Z,25.53
2022-12-09T16:00:28.418Z,21.87
2022-12-09T16:03:00.425Z,22.63
2022-12-09T16:05:29.095Z,23.43
2022-12-09T16:07:59.982Z,26.27
2022-12-09T16:10:29.518Z,28.53
2022-12-09T16:13:12.755Z,23.43
2022-12-09T16:15:53.819Z,23.67
2022-12-09T16:18:31.698Z,21.80
2022-12-09T16:21:04.743Z,26.47
2022-12-09T16:23:34.366Z,23.53
2022-12-09T16:26:07.231Z,26.10
2022-12-09T16:28:37.295Z,27.03
2022-12-09T16:31:18.434Z,22.90
2022-12-09T16:33:50.695Z,23.30
2022-12-09T16:36:26.135Z,24.80
2022-12-09T16:39:36.080Z,24.90
2022-12-09T16:42:04.301Z,23.97
2022-12-09T16:44:38.204Z,24.10
2022-12-09T16:47:14.721Z,25.23
2022-12-09T16:49:47.828Z,21.60
2022-12-09T16:52:17.872Z,24.53
2022-12-09T16:54:47.646Z,24.47
2022-12-09T16:57:17.660Z,23.73
2022-12-09T16:59:49.288Z,21.47
2022-12-09T17:02:25.310Z,25.10
2022-12-09T17:04:54.758Z,26.93
2022-12-09T17:07:23.019Z,25.77
2022-12-09T17:09:51.179Z,28.03
2022-12-09T17:12:19.307Z,27.63
2022-12-09T17:14:49.104Z,31.93
2022-12-09T17:17:17.122Z,29.17
2022-12-09T17:19:47.151Z,26.80
2022-12-09T17:22:20.520Z,29.27
2022-12-09T17:24:48.767Z,30.77
2022-12-09T17:27:18.694Z,25.90
2022-12-09T17:29:48.155Z,27.03
2022-12-09T17:32:16.401Z,30.53
2022-12-09T17:34:44.379Z,28.30
2022-12-09T17:37:12.962Z,27.07
2022-12-09T17:39:43.599Z,27.90
2022-12-09T17:42:11.773Z,29.57
2022-12-09T17:44:39.845Z,31.53
2022-12-09T17:47:09.374Z,26.30
2022-12-09T17:49:37.606Z,28.87
2022-12-09T17:52:08.906Z,27.47
2022-12-09T17:54:39.384Z,26.70
2022-12-09T17:57:07.775Z,26.57
2022-12-09T17:59:38.508Z,27.90
2022-12-09T18:02:06.996Z,28.33
2022-12-09T18:04:36.650Z,30.77
2022-12-09T18:07:04.860Z,28.27
2022-12-09T18:09:32.761Z,28.37
2022-12-09T18:12:01.034Z,29.27
2022-12-09T18:14:30.755Z,26.67
2022-12-09T18:16:58.830Z,28.80
2022-12-09T18:19:26.917Z,28.20
2022-12-09T18:21:57.334Z,28.77
2022-12-09T18:24:25.378Z,33.63
2022-12-09T18:26:55.206Z,33.90
2022-12-09T18:29:24.189Z,35.73
2022-12-09T18:31:56.766Z,34.13
2022-12-09T18:34:25.952Z,28.53
2022-12-09T18:36:54.527Z,32.53
2022-12-09T18:39:24.043Z,30.30
2022-12-09T18:41:52.124Z,32.67
2022-12-09T18:44:20.447Z,34.83
2022-12-09T18:46:50.766Z,30.67
2022-12-09T18:49:21.710Z,35.20
2022-12-09T18:51:51.193Z,34.67
2022-12-09T18:54:24.926Z,39.90
2022-12-09T18:56:55.125Z,41.00
2022-12-09T18:59:25.441Z,37.40
2022-12-09T19:02:03.334Z,42.33
2022-12-09T19:04:32.025Z,35.47
2022-12-09T19:07:01.507Z,34.50
2022-12-09T19:09:33.345Z,34.67
2022-12-09T19:12:37.750Z,36.67
2022-12-09T19:14:53.012Z,33.40
2022-12-09T19:17:21.746Z,31.37
2022-12-09T19:19:50.106Z,30.93
2022-12-09T19:22:18.382Z,34.20
2022-12-09T19:24:46.628Z,36.83
2022-12-09T19:27:16.236Z,28.03
2022-12-09T19:29:45.739Z,32.47
2022-12-09T19:32:36.614Z,33.97
2022-12-09T19:35:02.920Z,32.90
2022-12-09T19:37:31.020Z,35.73
2022-12-09T19:40:01.198Z,48.17
2022-12-09T19:42:33.609Z,49.73
2022-12-09T19:45:03.129Z,40.93
2022-12-09T19:47:33.482Z,43.57
2022-12-09T19:50:01.716Z,42.53
2022-12-09T19:52:29.788Z,39.17
2022-12-09T19:54:57.877Z,38.57
2022-12-09T19:57:25.850Z,37.40
2022-12-09T19:59:55.295Z,40.57
2022-12-09T20:02:26.500Z,35.23
2022-12-09T20:04:55.118Z,39.90
2022-12-09T20:07:25.553Z,39.00
2022-12-09T20:09:53.672Z,40.07
2022-12-09T20:12:24.406Z,35.97
2022-12-09T20:14:52.601Z,39.07
2022-12-09T20:17:24.338Z,34.93
2022-12-09T20:19:52.386Z,38.90
2022-12-09T20:22:20.487Z,38.23
2022-12-09T20:24:48.686Z,35.80
2022-12-09T20:27:21.026Z,31.40
2022-12-09T20:29:49.382Z,38.93
2022-12-09T20:32:21.152Z,40.27
2022-12-09T20:34:51.341Z,38.13
2022-12-09T20:37:19.347Z,37.60
2022-12-09T20:39:47.733Z,39.37
2022-12-09T20:42:15.795Z,44.53
2022-12-09T20:44:44.126Z,39.60
2022-12-09T20:47:12.315Z,36.27
2022-12-09T20:49:56.589Z,35.93
2022-12-09T20:52:27.898Z,36.63
2022-12-09T20:54:56.072Z,34.37
2022-12-09T20:57:24.300Z,37.37
2022-12-09T20:59:53.482Z,36.30
2022-12-09T21:02:21.657Z,35.67
2022-12-09T21:04:51.106Z,33.27
2022-12-09T21:07:21.515Z,39.87
2022-12-09T21:09:55.576Z,33.40
2022-12-09T21:12:23.605Z,38.13
2022-12-09T21:14:54.307Z,35.50
2022-12-09T21:17:27.225Z,36.37
2022-12-09T21:19:55.507Z,36.53
2022-12-09T21:22:28.478Z,30.13
2022-12-09T21:24:57.974Z,35.10
2022-12-09T21:27:26.276Z,37.07
2022-12-09T21:29:54.423Z,27.40
2022-12-09T21:32:22.596Z,35.53
2022-12-09T21:34:55.409Z,33.97
2022-12-09T21:37:26.160Z,35.00
2022-12-09T21:39:54.473Z,34.80
2022-12-09T21:42:23.026Z,38.27
2022-12-09T21:44:51.303Z,35.40
2022-12-09T21:47:19.367Z,37.70
2022-12-09T21:49:48.559Z,39.63
2022-12-09T21:52:16.629Z,37.70
2022-12-09T21:54:53.726Z,35.20
2022-12-09T21:57:26.286Z,37.67
2022-12-09T21:59:54.521Z,36.93
2022-12-09T22:02:22.766Z,35.40
2022-12-09T22:04:52.771Z,34.50
2022-12-09T22:07:30.406Z,39.87
2022-12-09T22:10:08.006Z,38.23
2022-12-09T22:12:39.664Z,35.97
2022-12-09T22:15:10.633Z,35.03
2022-12-09T22:17:38.612Z,32.77
2022-12-09T22:20:49.027Z,29.73
2022-12-09T22:22:57.082Z,34.13
2022-12-09T22:25:27.032Z,36.17
2022-12-09T22:27:55.150Z,34.77
2022-12-09T22:30:23.471Z,39.13
2022-12-09T22:32:57.091Z,41.77
2022-12-09T22:35:29.464Z,37.87
2022-12-09T22:37:59.307Z,36.90
2022-12-09T22:40:29.103Z,38.97
2022-12-09T22:42:57.558Z,39.53
2022-12-09T22:45:28.779Z,37.83
2022-12-09T22:47:57.043Z,40.30
2022-12-09T22:50:25.145Z,42.73
2022-12-09T22:52:53.799Z,35.20
2022-12-09T22:55:22.008Z,35.43
2022-12-09T22:57:51.945Z,34.77
2022-12-09T23:00:21.007Z,33.90
2022-12-09T23:02:49.558Z,37.70
2022-12-09T23:05:18.089Z,37.50
2022-12-09T23:07:47.484Z,36.33
2022-12-09T23:10:16.419Z,44.70
2022-12-09T23:12:44.850Z,41.03
2022-12-09T23:15:14.761Z,42.53
2022-12-09T23:17:42.998Z,38.90
2022-12-09T23:20:12.043Z,39.53
2022-12-09T23:22:40.023Z,38.70
2022-12-09T23:25:09.603Z,38.63
2022-12-09T23:27:37.751Z,39.17
2022-12-09T23:30:07.779Z,40.27
2022-12-09T23:32:38.099Z,40.70
2022-12-09T23:35:09.249Z,44.03
2022-12-09T23:37:37.870Z,38.97
2022-12-09T23:40:07.795Z,39.60
2022-12-09T23:42:36.747Z,40.83
2022-12-09T23:45:08.349Z,38.33
2022-12-09T23:47:46.863Z,39.83
2022-12-09T23:50:19.804Z,44.87
2022-12-09T23:53:03.346Z,37.20
2022-12-09T23:55:34.888Z,36.90
2022-12-09T23:58:03.177Z,43.13
